Time;durP1;ratioP1;P1;durP2;ratioP2;P2;SDS_P1;SDS_P2;PMS_P1;PMS_P2;Temp;Humidity;BMP_temperature;BMP_pressure;BME280_temperature;BME280_humidity;BME280_pressure;Samples;Min_cycle;Max_cycle;Signal;HPM_P1;HPM_P2
2023/01/20 00:01:20;;;;;;;1.55;1.40;;;4.50;99.90;;;;;;5026403;28;20288;-74
2023/01/20 00:03:49;;;;;;;1.88;1.70;;;4.50;99.90;;;;;;5025856;28;20224;-75
2023/01/20 00:06:17;;;;;;;2.75;1.55;;;4.50;99.90;;;;;;5028485;28;20193;-74
2023/01/20 00:08:50;;;;;;;2.20;1.60;;;4.50;99.90;;;;;;5024381;28;20688;-74
2023/01/20 00:11:20;;;;;;;1.48;1.30;;;4.50;99.90;;;;;;5027816;28;20287;-74
2023/01/20 00:13:49;;;;;;;1.88;1.77;;;4.50;99.90;;;;;;5025920;28;20225;-74
2023/01/20 00:16:17;;;;;;;3.80;2.08;;;4.50;99.90;;;;;;5022972;28;20197;-74
2023/01/20 00:18:45;;;;;;;2.20;1.52;;;4.50;99.90;;;;;;5049548;28;20644;-74
2023/01/20 00:21:15;;;;;;;2.50;1.67;;;4.50;99.90;;;;;;5025578;28;20189;-74
2023/01/20 00:23:45;;;;;;;2.45;1.70;;;4.50;99.90;;;;;;5026866;28;20234;-74
2023/01/20 00:26:15;;;;;;;2.95;1.65;;;4.50;99.90;;;;;;5026040;28;20201;-74
2023/01/20 00:28:46;;;;;;;1.50;1.38;;;4.50;99.90;;;;;;5054869;28;20248;-74
2023/01/20 00:31:16;;;;;;;2.20;1.60;;;4.50;99.90;;;;;;5059587;28;20647;-74
2023/01/20 00:33:45;;;;;;;2.17;1.92;;;4.50;99.90;;;;;;5025846;28;20315;-74
2023/01/20 00:36:15;;;;;;;2.17;1.50;;;4.50;99.90;;;;;;5044029;28;20283;-74
2023/01/20 00:38:44;;;;;;;3.55;1.80;;;4.50;99.90;;;;;;5026251;28;20308;-74
2023/01/20 00:41:13;;;;;;;2.30;1.40;;;4.50;99.90;;;;;;5025737;28;20283;-74
2023/01/20 00:43:41;;;;;;;2.72;2.38;;;4.50;99.90;;;;;;5025804;28;20220;-74
2023/01/20 00:46:11;;;;;;;2.42;1.63;;;4.50;99.90;;;;;;5025408;28;20636;-74
2023/01/20 00:48:40;;;;;;;2.38;1.58;;;4.50;99.90;;;;;;5027123;28;20224;-74
2023/01/20 00:51:10;;;;;;;2.67;1.63;;;4.50;99.90;;;;;;5031158;28;20196;-74
2023/01/20 00:53:38;;;;;;;2.35;1.65;;;4.50;99.90;;;;;;5026140;28;20285;-74
2023/01/20 00:56:07;;;;;;;2.30;1.80;;;4.50;99.90;;;;;;5025121;28;20809;-74
2023/01/20 00:58:36;;;;;;;2.20;1.80;;;4.50;99.90;;;;;;5043166;28;20220;-74
2023/01/20 01:01:04;;;;;;;1.60;1.50;;;4.50;99.90;;;;;;5020104;28;20764;-74
2023/01/20 01:03:34;;;;;;;2.80;2.30;;;4.50;99.90;;;;;;5021651;28;20228;-75
2023/01/20 01:06:06;;;;;;;2.03;1.52;;;4.50;99.90;;;;;;5040069;28;20586;-75
2023/01/20 01:08:35;;;;;;;2.08;1.30;;;4.50;99.90;;;;;;5023454;28;20313;-74
2023/01/20 01:11:18;;;;;;;4.90;2.95;;;4.50;99.90;;;;;;5019517;28;20688;-75
2023/01/20 01:13:47;;;;;;;2.90;1.55;;;4.50;99.90;;;;;;5057612;28;20307;-74
2023/01/20 01:16:16;;;;;;;2.83;2.00;;;4.50;99.90;;;;;;5024244;28;20541;-75
2023/01/20 01:18:46;;;;;;;3.17;2.10;;;4.50;99.90;;;;;;5022922;28;20583;-74
2023/01/20 01:21:16;;;;;;;2.10;1.90;;;4.50;99.90;;;;;;5026510;28;20247;-74
2023/01/20 01:23:45;;;;;;;1.83;1.73;;;4.50;99.90;;;;;;5042480;28;20730;-75
2023/01/20 01:26:13;;;;;;;1.83;1.38;;;4.50;99.90;;;;;;5025881;28;20208;-74
2023/01/20 01:28:41;;;;;;;2.33;1.83;;;4.50;99.90;;;;;;5024469;28;20315;-75
2023/01/20 01:31:10;;;;;;;3.45;2.25;;;4.50;99.90;;;;;;5020954;28;20205;-75
2023/01/20 01:33:39;;;;;;;2.15;1.80;;;4.50;99.90;;;;;;5055496;28;20643;-74
2023/01/20 01:36:13;;;;;;;2.88;2.00;;;4.50;99.90;;;;;;5025417;28;20221;-75
2023/01/20 01:38:42;;;;;;;2.30;2.10;;;4.50;99.90;;;;;;5026004;28;20223;-75
2023/01/20 01:41:12;;;;;;;2.72;1.42;;;4.50;99.90;;;;;;5019586;28;20271;-74
2023/01/20 01:43:56;;;;;;;2.08;1.50;;;4.50;99.90;;;;;;5025677;28;20312;-74
2023/01/20 01:46:24;;;;;;;3.63;2.25;;;4.50;99.90;;;;;;5057595;28;20306;-74
2023/01/20 01:48:53;;;;;;;2.63;1.30;;;4.50;99.90;;;;;;5026051;28;20745;-74
2023/01/20 01:51:25;;;;;;;2.33;1.98;;;4.50;99.90;;;;;;5025605;28;20198;-74
2023/01/20 01:53:56;;;;;;;3.38;2.13;;;4.40;99.90;;;;;;5025353;28;20224;-74
2023/01/20 01:56:30;;;;;;;2.90;1.98;;;4.50;99.90;;;;;;5023811;28;20288;-75
2023/01/20 01:59:01;;;;;;;2.35;1.58;;;4.40;99.90;;;;;;5024736;28;20278;-75
2023/01/20 02:01:36;;;;;;;2.47;2.00;;;4.40;99.90;;;;;;5018641;28;20625;-74
2023/01/20 02:04:08;;;;;;;2.40;2.15;;;4.40;99.90;;;;;;5016235;28;20237;-74
2023/01/20 02:06:41;;;;;;;5.88;2.25;;;4.40;99.90;;;;;;5026662;28;20302;-75
2023/01/20 02:09:10;;;;;;;3.00;2.67;;;4.40;99.90;;;;;;5023409;28;20228;-74
2023/01/20 02:11:44;;;;;;;3.80;2.42;;;4.40;99.90;;;;;;5047132;28;20193;-75
2023/01/20 02:14:12;;;;;;;2.58;1.90;;;4.40;99.90;;;;;;5027796;28;20274;-74
2023/01/20 02:16:49;;;;;;;5.43;2.40;;;4.50;99.90;;;;;;5027323;28;20199;-75
2023/01/20 02:19:51;;;;;;;3.15;2.40;;;4.40;99.90;;;;;;5062418;28;20235;-74
2023/01/20 02:22:29;;;;;;;3.72;2.58;;;4.40;99.90;;;;;;5006148;28;20820;-74
2023/01/20 02:25:39;;;;;;;3.72;3.25;;;4.40;99.90;;;;;;5028766;28;20200;-74
2023/01/20 02:28:24;;;;;;;3.08;2.50;;;4.40;99.90;;;;;;5030905;28;20246;-75
2023/01/20 02:31:09;;;;;;;2.65;1.92;;;4.40;99.90;;;;;;5025602;28;20204;-74
2023/01/20 02:33:44;;;;;;;2.70;2.10;;;4.40;99.90;;;;;;5024978;28;20217;-75
2023/01/20 02:36:22;;;;;;;3.40;2.72;;;4.50;99.90;;;;;;5055426;28;20261;-74
2023/01/20 02:38:59;;;;;;;2.70;2.30;;;4.40;99.90;;;;;;5028051;28;20308;-75
2023/01/20 02:41:37;;;;;;;2.17;1.90;;;4.40;99.90;;;;;;5028955;28;20196;-75
2023/01/20 02:44:17;;;;;;;2.35;1.85;;;4.40;99.90;;;;;;5056793;28;20216;-74
2023/01/20 02:46:52;;;;;;;3.35;2.47;;;4.40;99.90;;;;;;5038557;28;20199;-74
2023/01/20 02:49:26;;;;;;;2.35;2.10;;;4.40;99.90;;;;;;5027332;28;20271;-74
2023/01/20 02:52:00;;;;;;;2.70;1.60;;;4.40;99.90;;;;;;5046922;28;20235;-75
2023/01/20 02:54:31;;;;;;;2.15;1.95;;;4.40;99.90;;;;;;5047843;28;20275;-75
2023/01/20 02:57:03;;;;;;;2.67;2.05;;;4.40;99.90;;;;;;5028882;28;20279;-75
2023/01/20 02:59:36;;;;;;;2.75;2.42;;;4.40;99.90;;;;;;5028739;28;20291;-74
2023/01/20 03:02:08;;;;;;;3.20;2.88;;;4.40;99.90;;;;;;5049258;28;20256;-74
2023/01/20 03:04:41;;;;;;;3.28;2.60;;;4.40;99.90;;;;;;5031628;28;20200;-75
2023/01/20 03:07:12;;;;;;;3.10;2.20;;;4.40;99.90;;;;;;5030956;28;20203;-75
2023/01/20 03:09:46;;;;;;;3.33;2.55;;;4.40;99.90;;;;;;5031330;28;20220;-75
2023/01/20 03:12:21;;;;;;;2.33;1.95;;;4.40;99.90;;;;;;5030334;28;20816;-75
2023/01/20 03:14:50;;;;;;;2.17;1.98;;;4.40;99.90;;;;;;5030700;28;20203;-75
2023/01/20 03:17:19;;;;;;;3.15;2.03;;;4.40;99.90;;;;;;5052344;28;20193;-74
2023/01/20 03:19:49;;;;;;;3.17;2.40;;;4.40;99.90;;;;;;5021808;28;20205;-74
2023/01/20 03:22:18;;;;;;;2.83;2.55;;;4.40;99.90;;;;;;5048449;28;20238;-74
2023/01/20 03:24:48;;;;;;;3.08;2.55;;;4.40;99.90;;;;;;5030491;28;20189;-74
2023/01/20 03:27:16;;;;;;;3.05;2.35;;;4.40;99.90;;;;;;5054771;28;20192;-75
2023/01/20 03:29:44;;;;;;;3.40;2.10;;;4.40;99.90;;;;;;5030096;28;20214;-74
2023/01/20 03:32:14;;;;;;;3.25;2.88;;;4.40;99.90;;;;;;5029689;28;20632;-75
2023/01/20 03:34:44;;;;;;;4.40;2.60;;;4.40;99.90;;;;;;5029256;28;20604;-74
2023/01/20 03:37:14;;;;;;;3.10;2.67;;;4.40;99.90;;;;;;5047021;28;20303;-74
2023/01/20 03:39:43;;;;;;;3.40;2.28;;;4.40;99.90;;;;;;5025147;28;20335;-74
2023/01/20 03:42:16;;;;;;;2.40;2.20;;;4.40;99.90;;;;;;5031235;28;20715;-74
2023/01/20 03:44:59;;;;;;;4.03;2.30;;;4.40;99.90;;;;;;5055285;28;20391;-74
2023/01/20 03:47:46;;;;;;;3.10;2.22;;;4.40;99.90;;;;;;5022418;28;20229;-73
2023/01/20 03:50:26;;;;;;;2.92;2.28;;;4.40;99.90;;;;;;5042437;28;20246;-74
2023/01/20 03:53:01;;;;;;;2.60;2.20;;;4.40;99.90;;;;;;5029170;28;20255;-74
2023/01/20 03:55:35;;;;;;;2.78;2.30;;;4.40;99.90;;;;;;5056210;28;20200;-75
2023/01/20 03:58:07;;;;;;;2.90;2.03;;;4.40;99.90;;;;;;5045034;28;20228;-74
2023/01/20 04:00:39;;;;;;;3.15;2.30;;;4.40;99.90;;;;;;5030907;28;20213;-74
2023/01/20 04:03:12;;;;;;;3.00;2.60;;;4.40;99.90;;;;;;5024011;28;20239;-74
2023/01/20 04:05:41;;;;;;;2.85;2.47;;;4.40;99.90;;;;;;5029146;28;20547;-74
2023/01/20 04:08:13;;;;;;;2.58;2.15;;;4.40;99.90;;;;;;5027552;28;20719;-75
2023/01/20 04:10:45;;;;;;;3.15;1.92;;;4.40;99.90;;;;;;5042295;28;20192;-75
2023/01/20 04:13:14;;;;;;;3.28;2.45;;;4.40;99.90;;;;;;5027525;28;20255;-75
2023/01/20 04:15:45;;;;;;;2.70;1.92;;;4.40;99.90;;;;;;5025626;28;20756;-74
2023/01/20 04:18:16;;;;;;;2.33;2.10;;;4.40;99.90;;;;;;5037333;28;20212;-74
2023/01/20 04:20:46;;;;;;;3.03;1.90;;;4.40;99.90;;;;;;5044646;28;20584;-74
2023/01/20 04:23:20;;;;;;;3.60;2.35;;;4.40;99.90;;;;;;5025214;28;20227;-74
2023/01/20 04:25:49;;;;;;;2.70;2.30;;;4.40;99.90;;;;;;5027721;28;20557;-73
2023/01/20 04:28:17;;;;;;;2.80;2.13;;;4.40;99.90;;;;;;5047025;28;20303;-74
2023/01/20 04:30:46;;;;;;;1.92;1.63;;;4.40;99.90;;;;;;5028840;28;20189;-75
2023/01/20 04:33:14;;;;;;;3.00;2.00;;;4.40;99.90;;;;;;5043382;28;20242;-74
2023/01/20 04:35:42;;;;;;;3.85;2.22;;;4.40;99.90;;;;;;5027828;28;20199;-74
2023/01/20 04:38:11;;;;;;;3.65;2.47;;;4.40;99.90;;;;;;5025742;28;20201;-74
2023/01/20 04:40:40;;;;;;;3.00;2.63;;;4.40;99.90;;;;;;5006400;28;20221;-74
2023/01/20 04:43:10;;;;;;;2.35;2.15;;;4.40;99.90;;;;;;5027728;28;20254;-74
2023/01/20 04:45:41;;;;;;;3.13;2.30;;;4.40;99.90;;;;;;5030282;28;20201;-75
2023/01/20 04:48:10;;;;;;;2.20;2.00;;;4.40;99.90;;;;;;5019872;28;20232;-75
2023/01/20 04:50:39;;;;;;;4.15;2.22;;;4.40;99.90;;;;;;5027449;28;20224;-75
2023/01/20 04:53:11;;;;;;;2.05;1.85;;;4.40;99.90;;;;;;5043713;28;20292;-75
2023/01/20 04:55:40;;;;;;;4.03;2.10;;;4.40;99.90;;;;;;5026259;28;20284;-74
2023/01/20 04:58:09;;;;;;;2.55;2.13;;;4.40;99.90;;;;;;5026520;28;20213;-74
2023/01/20 05:00:38;;;;;;;3.60;1.77;;;4.40;99.90;;;;;;5045455;28;20204;-74
2023/01/20 05:03:06;;;;;;;2.60;2.00;;;4.40;99.90;;;;;;5025402;28;20290;-74
2023/01/20 05:05:35;;;;;;;2.67;1.80;;;4.40;99.90;;;;;;5026660;28;20270;-74
2023/01/20 05:08:04;;;;;;;2.47;1.73;;;4.40;99.90;;;;;;5026505;28;20216;-75
2023/01/20 05:10:32;;;;;;;3.53;1.77;;;4.40;99.90;;;;;;5022221;28;20225;-74
2023/01/20 05:13:02;;;;;;;2.08;1.60;;;4.40;99.90;;;;;;5044524;28;20744;-74
2023/01/20 05:15:30;;;;;;;2.42;1.70;;;4.40;99.90;;;;;;5025925;28;20651;-74
2023/01/20 05:17:59;;;;;;;3.22;1.95;;;4.40;99.90;;;;;;5018868;28;20216;-75
2023/01/20 05:20:27;;;;;;;2.67;2.10;;;4.40;99.90;;;;;;5025983;28;20655;-74
2023/01/20 05:22:57;;;;;;;2.60;2.30;;;4.40;99.90;;;;;;5025288;28;20227;-75
2023/01/20 05:25:28;;;;;;;2.50;2.20;;;4.40;99.90;;;;;;5023471;28;20295;-74
2023/01/20 05:27:58;;;;;;;4.13;2.33;;;4.40;99.90;;;;;;5042479;28;20278;-75
2023/01/20 05:30:27;;;;;;;2.45;2.05;;;4.40;99.90;;;;;;5026738;28;20231;-74
2023/01/20 05:32:56;;;;;;;2.17;1.75;;;4.40;99.90;;;;;;5023017;28;20289;-74
2023/01/20 05:35:24;;;;;;;2.45;1.90;;;4.40;99.90;;;;;;5015197;28;20191;-74
2023/01/20 05:37:54;;;;;;;3.15;2.47;;;4.40;99.90;;;;;;5042518;28;20235;-74
2023/01/20 05:40:22;;;;;;;2.05;1.85;;;4.30;99.90;;;;;;5022532;28;20209;-74
2023/01/20 05:42:50;;;;;;;2.40;1.88;;;4.40;99.90;;;;;;5025335;28;20625;-74
2023/01/20 05:45:19;;;;;;;2.65;2.03;;;4.40;99.90;;;;;;5029212;28;20621;-74
2023/01/20 05:47:53;;;;;;;2.33;1.73;;;4.40;99.90;;;;;;5024091;28;20771;-74
2023/01/20 05:50:26;;;;;;;2.08;1.70;;;4.40;99.90;;;;;;5055896;28;20194;-74
2023/01/20 05:52:55;;;;;;;2.38;1.88;;;4.30;99.90;;;;;;5043475;28;20313;-74
2023/01/20 05:55:23;;;;;;;2.25;1.63;;;4.40;99.90;;;;;;5041671;28;20191;-74
2023/01/20 05:57:52;;;;;;;2.60;1.88;;;4.40;99.90;;;;;;5044439;28;20627;-75
2023/01/20 06:00:21;;;;;;;2.33;2.13;;;4.40;99.90;;;;;;5043689;28;20219;-75
2023/01/20 06:02:50;;;;;;;2.10;1.63;;;4.40;99.90;;;;;;5026716;28;21028;-74
2023/01/20 06:05:19;;;;;;;2.65;2.00;;;4.40;99.90;;;;;;5029724;28;20189;-74
2023/01/20 06:07:48;;;;;;;3.35;2.03;;;4.40;99.90;;;;;;5032891;28;20608;-74
2023/01/20 06:10:18;;;;;;;3.10;2.17;;;4.40;99.90;;;;;;5054474;28;20224;-74
2023/01/20 06:12:51;;;;;;;3.35;1.30;;;4.40;99.90;;;;;;5037913;28;20238;-74
2023/01/20 06:15:20;;;;;;;3.80;1.83;;;4.40;99.90;;;;;;5029817;28;20279;-74
2023/01/20 06:17:48;;;;;;;2.78;2.13;;;4.30;99.90;;;;;;5027474;28;20196;-74
2023/01/20 06:20:18;;;;;;;3.42;2.05;;;4.40;99.90;;;;;;5029251;28;21163;-74
2023/01/20 06:22:46;;;;;;;1.92;1.60;;;4.30;99.90;;;;;;5062180;28;20232;-74
2023/01/20 06:25:15;;;;;;;2.63;1.65;;;4.30;99.90;;;;;;5025898;28;20296;-74
2023/01/20 06:27:44;;;;;;;2.17;1.60;;;4.30;99.90;;;;;;5046709;28;20718;-74
2023/01/20 06:30:12;;;;;;;2.70;1.98;;;4.30;99.90;;;;;;5028779;28;20242;-74
2023/01/20 06:32:41;;;;;;;2.65;1.83;;;4.30;99.90;;;;;;5011571;28;20228;-74
2023/01/20 06:35:10;;;;;;;2.72;1.67;;;4.30;99.90;;;;;;5028558;28;20221;-75
2023/01/20 06:37:40;;;;;;;2.60;1.65;;;4.30;99.90;;;;;;5047065;28;20559;-74
2023/01/20 06:40:10;;;;;;;3.67;1.70;;;4.30;99.90;;;;;;5035381;28;20200;-75
2023/01/20 06:42:38;;;;;;;2.90;1.80;;;4.30;99.90;;;;;;5028099;28;20256;-74
2023/01/20 06:45:08;;;;;;;2.53;1.50;;;4.30;99.90;;;;;;5028433;28;20322;-74
2023/01/20 06:47:36;;;;;;;2.25;2.05;;;4.30;99.90;;;;;;5028550;28;20228;-74
2023/01/20 06:50:05;;;;;;;2.42;1.63;;;4.30;99.90;;;;;;5028392;28;20227;-74
2023/01/20 06:52:33;;;;;;;2.50;1.92;;;4.30;99.90;;;;;;5028018;28;20232;-73
2023/01/20 06:55:03;;;;;;;2.88;2.03;;;4.30;99.90;;;;;;5023085;28;20215;-74
2023/01/20 06:57:31;;;;;;;4.93;2.40;;;4.30;99.90;;;;;;5027096;28;20287;-75
2023/01/20 07:00:00;;;;;;;1.90;1.70;;;4.30;99.90;;;;;;5023342;28;20568;-74
2023/01/20 07:02:28;;;;;;;2.47;2.05;;;4.30;99.90;;;;;;5037155;28;21054;-74
2023/01/20 07:05:01;;;;;;;4.28;3.00;;;4.30;99.90;;;;;;5034861;28;20254;-73
2023/01/20 07:07:32;;;;;;;2.63;1.70;;;4.30;99.90;;;;;;5034872;28;20720;-74
2023/01/20 07:10:05;;;;;;;2.63;1.80;;;4.30;99.90;;;;;;5049261;28;20193;-72
2023/01/20 07:12:33;;;;;;;2.83;1.95;;;4.30;99.90;;;;;;5057305;28;20222;-74
2023/01/20 07:15:01;;;;;;;2.97;1.70;;;4.30;99.90;;;;;;5037668;28;20285;-74
2023/01/20 07:17:29;;;;;;;2.10;1.85;;;4.30;99.90;;;;;;5031055;28;20235;-74
2023/01/20 07:19:58;;;;;;;2.45;1.40;;;4.30;99.90;;;;;;5042896;28;20200;-75
2023/01/20 07:22:26;;;;;;;4.80;2.63;;;4.30;99.90;;;;;;5043318;28;20215;-74
2023/01/20 07:24:54;;;;;;;2.85;2.05;;;4.30;99.90;;;;;;5041501;28;20715;-74
2023/01/20 07:27:24;;;;;;;2.15;1.58;;;4.30;99.90;;;;;;5040767;28;20197;-73
2023/01/20 07:29:52;;;;;;;3.97;1.70;;;4.30;99.90;;;;;;5034751;28;20211;-75
2023/01/20 07:32:20;;;;;;;2.15;1.95;;;4.30;99.90;;;;;;5038850;28;20223;-73
2023/01/20 07:34:49;;;;;;;2.05;1.70;;;4.30;99.90;;;;;;5037667;28;20201;-73
2023/01/20 07:37:17;;;;;;;2.33;2.13;;;4.30;99.90;;;;;;5035358;28;20188;-74
2023/01/20 07:39:45;;;;;;;1.90;1.60;;;4.30;99.90;;;;;;5037302;28;20201;-74
2023/01/20 07:42:14;;;;;;;2.35;1.88;;;4.30;99.90;;;;;;5032165;28;20254;-74
2023/01/20 07:44:43;;;;;;;2.83;1.65;;;4.30;99.90;;;;;;5040914;28;20207;-74
2023/01/20 07:47:12;;;;;;;1.77;1.38;;;4.30;99.90;;;;;;5055207;28;20693;-74
2023/01/20 07:49:40;;;;;;;2.33;1.85;;;4.30;99.90;;;;;;5037725;28;20196;-73
2023/01/20 07:52:08;;;;;;;3.70;1.90;;;4.30;99.90;;;;;;5063418;28;20851;-75
2023/01/20 07:54:36;;;;;;;2.30;1.60;;;4.30;99.90;;;;;;5060538;28;20203;-74
2023/01/20 07:57:05;;;;;;;2.50;1.83;;;4.30;99.90;;;;;;5064505;28;20227;-75
2023/01/20 07:59:33;;;;;;;2.22;1.70;;;4.30;99.90;;;;;;5040601;28;20627;-72
2023/01/20 08:02:03;;;;;;;2.65;1.83;;;4.30;99.90;;;;;;5029994;28;20212;-75
2023/01/20 08:04:33;;;;;;;2.88;2.08;;;4.30;99.90;;;;;;5047734;28;20207;-72
2023/01/20 08:07:02;;;;;;;2.28;1.88;;;4.30;99.90;;;;;;5038234;28;20197;-75
2023/01/20 08:09:30;;;;;;;2.40;1.90;;;4.30;99.90;;;;;;5044646;28;20202;-73
2023/01/20 08:11:58;;;;;;;3.15;2.05;;;4.30;99.90;;;;;;5028318;28;20207;-74
2023/01/20 08:14:27;;;;;;;2.05;1.60;;;4.30;99.90;;;;;;5032780;28;20189;-73
2023/01/20 08:16:55;;;;;;;2.20;2.00;;;4.30;99.90;;;;;;5031880;28;20192;-75
2023/01/20 08:19:28;;;;;;;2.10;1.70;;;4.30;99.90;;;;;;5037873;28;20595;-75
2023/01/20 08:21:56;;;;;;;2.13;1.90;;;4.30;99.90;;;;;;5048334;28;20297;-73
2023/01/20 08:24:24;;;;;;;3.00;2.20;;;4.30;99.90;;;;;;5034927;28;20205;-73
2023/01/20 08:26:53;;;;;;;3.05;2.30;;;4.30;99.90;;;;;;5038817;28;20228;-74
2023/01/20 08:29:21;;;;;;;1.73;1.63;;;4.30;99.90;;;;;;5068282;28;20197;-74
2023/01/20 08:31:50;;;;;;;2.03;1.52;;;4.30;99.90;;;;;;5027713;28;20205;-73
2023/01/20 08:34:19;;;;;;;1.98;1.55;;;4.30;99.90;;;;;;5045430;28;20218;-74
2023/01/20 08:36:51;;;;;;;2.28;1.90;;;4.30;99.90;;;;;;5035772;28;20677;-73
2023/01/20 08:39:21;;;;;;;2.58;1.88;;;4.30;99.90;;;;;;5021292;28;20243;-73
2023/01/20 08:41:50;;;;;;;3.10;2.05;;;4.30;99.90;;;;;;5027225;28;20199;-73
2023/01/20 08:44:19;;;;;;;2.03;1.73;;;4.30;99.90;;;;;;5034268;28;20212;-74
2023/01/20 08:46:51;;;;;;;1.77;1.40;;;4.30;99.90;;;;;;5037340;28;20200;-74
2023/01/20 08:49:21;;;;;;;1.90;1.63;;;4.30;99.90;;;;;;5058695;28;20287;-74
2023/01/20 08:51:51;;;;;;;1.70;1.40;;;4.30;99.90;;;;;;5038279;28;20207;-75
2023/01/20 08:54:20;;;;;;;2.25;1.55;;;4.30;99.90;;;;;;5042596;28;20311;-74
2023/01/20 08:56:50;;;;;;;1.70;1.60;;;4.30;99.90;;;;;;5051304;28;20193;-75
2023/01/20 08:59:19;;;;;;;1.80;1.70;;;4.30;99.90;;;;;;5030731;28;20284;-74
2023/01/20 09:01:47;;;;;;;3.20;1.70;;;4.30;99.90;;;;;;5021020;28;20777;-74
2023/01/20 09:04:16;;;;;;;1.95;1.75;;;4.30;99.90;;;;;;5031386;28;20213;-74
2023/01/20 09:06:47;;;;;;;1.77;1.60;;;4.30;99.90;;;;;;5039811;28;20191;-73
2023/01/20 09:09:18;;;;;;;2.47;1.80;;;4.30;99.90;;;;;;5056188;28;20200;-74
2023/01/20 09:11:50;;;;;;;2.60;1.90;;;4.30;99.90;;;;;;5055669;28;20207;-74
2023/01/20 09:14:19;;;;;;;1.70;1.38;;;4.30;99.90;;;;;;5063837;28;20257;-75
2023/01/20 09:16:47;;;;;;;2.55;1.88;;;4.30;99.90;;;;;;5025137;28;20299;-74
2023/01/20 09:19:16;;;;;;;4.82;2.08;;;4.30;99.90;;;;;;5050424;28;20281;-74
2023/01/20 09:21:44;;;;;;;2.88;2.58;;;4.30;99.90;;;;;;5035361;28;20300;-75
2023/01/20 09:24:13;;;;;;;4.57;2.70;;;4.30;99.90;;;;;;5042238;28;20220;-75
2023/01/20 09:26:43;;;;;;;5.85;3.55;;;4.30;99.90;;;;;;5037577;28;20196;-75
2023/01/20 09:29:13;;;;;;;5.05;4.28;;;4.30;99.90;;;;;;5043280;28;21136;-75
2023/01/20 09:31:44;;;;;;;8.07;4.95;;;4.20;99.90;;;;;;5046731;28;20188;-74
2023/01/20 09:34:17;;;;;;;5.07;3.90;;;4.20;99.90;;;;;;5064996;28;20682;-74
2023/01/20 09:36:49;;;;;;;7.13;4.63;;;4.20;99.90;;;;;;5038194;28;20193;-73
2023/01/20 09:45:21;;;;;;;6.70;4.68;;;4.20;99.90;;;;;;5043931;28;20482;-75
2023/01/20 09:47:50;;;;;;;5.20;4.65;;;4.20;99.90;;;;;;5036228;28;20257;-73
2023/01/20 09:53:36;;;;;;;5.13;4.10;;;4.20;99.90;;;;;;5038447;28;20221;-74
2023/01/20 09:56:10;;;;;;;6.80;3.75;;;4.20;99.90;;;;;;5025116;28;20231;-74
2023/01/20 09:58:44;;;;;;;5.68;4.20;;;4.20;99.90;;;;;;5034851;28;20657;-73
2023/01/20 10:01:17;;;;;;;6.45;4.88;;;4.30;99.90;;;;;;5035639;28;20215;-73
2023/01/20 10:03:52;;;;;;;4.57;3.58;;;4.30;99.90;;;;;;5031654;28;20690;-75
2023/01/20 10:06:25;;;;;;;6.20;4.05;;;4.20;99.90;;;;;;5049311;28;20211;-73
2023/01/20 10:08:57;;;;;;;5.70;4.00;;;4.30;99.90;;;;;;5038962;28;20252;-73
2023/01/20 10:11:37;;;;;;;6.70;3.97;;;4.30;99.90;;;;;;5030950;28;20188;-74
2023/01/20 10:14:13;;;;;;;4.82;4.00;;;4.30;99.90;;;;;;5020783;28;20729;-73
2023/01/20 10:16:48;;;;;;;3.67;3.38;;;4.30;99.90;;;;;;5031487;28;20225;-75
2023/01/20 10:19:26;;;;;;;4.53;3.90;;;4.30;99.90;;;;;;5043137;28;20219;-74
2023/01/20 10:22:02;;;;;;;5.40;3.95;;;4.30;99.90;;;;;;5038984;28;20199;-73
2023/01/20 10:24:33;;;;;;;5.45;3.40;;;4.30;99.90;;;;;;5031137;28;20670;-74
2023/01/20 10:27:03;;;;;;;4.53;3.83;;;4.20;99.90;;;;;;5018056;28;20320;-74
2023/01/20 10:29:36;;;;;;;4.47;3.50;;;4.30;99.90;;;;;;5033172;28;20205;-74
2023/01/20 10:32:09;;;;;;;6.13;3.75;;;4.20;99.90;;;;;;5031906;28;20188;-74
2023/01/20 10:34:45;;;;;;;6.63;4.90;;;4.30;99.90;;;;;;5058445;28;20247;-74
2023/01/20 10:37:14;;;;;;;6.93;3.72;;;4.30;99.90;;;;;;5048596;28;20219;-74
2023/01/20 10:39:47;;;;;;;5.53;3.90;;;4.20;99.90;;;;;;5039586;28;20618;-74
2023/01/20 10:42:18;;;;;;;5.00;3.50;;;4.30;99.90;;;;;;5053916;28;20339;-73
2023/01/20 10:44:50;;;;;;;4.18;3.67;;;4.30;99.90;;;;;;5048870;28;20244;-74
2023/01/20 10:47:25;;;;;;;3.55;2.70;;;4.30;99.90;;;;;;5038174;28;20293;-74
2023/01/20 10:50:20;;;;;;;4.85;4.05;;;4.20;99.90;;;;;;5042719;28;20203;-74
2023/01/20 10:53:08;;;;;;;3.60;3.08;;;4.20;99.90;;;;;;5066214;28;20228;-74
2023/01/20 10:55:48;;;;;;;4.03;3.08;;;4.20;99.90;;;;;;5052260;28;20281;-74
2023/01/20 10:58:21;;;;;;;4.68;3.67;;;4.20;99.90;;;;;;5027855;28;20859;-74
2023/01/20 11:00:51;;;;;;;5.90;3.40;;;4.20;99.90;;;;;;5028887;28;20631;-73
2023/01/20 11:03:22;;;;;;;4.40;3.30;;;4.20;99.90;;;;;;5042361;28;20227;-74
2023/01/20 11:05:52;;;;;;;4.10;3.08;;;4.20;99.90;;;;;;5028245;28;20200;-74
2023/01/20 11:08:22;;;;;;;5.63;3.50;;;4.20;99.90;;;;;;5044610;28;20251;-73
2023/01/20 11:10:54;;;;;;;3.88;3.03;;;4.20;99.90;;;;;;5026485;28;20201;-73
2023/01/20 11:13:23;;;;;;;5.40;2.75;;;4.20;99.90;;;;;;5057505;28;20645;-73
2023/01/20 11:15:56;;;;;;;3.65;3.05;;;4.20;99.90;;;;;;5059293;28;20195;-74
2023/01/20 11:18:28;;;;;;;3.65;3.25;;;4.20;99.90;;;;;;5031333;28;20737;-74
2023/01/20 11:20:59;;;;;;;2.85;2.47;;;4.20;99.90;;;;;;5039770;28;20270;-73
2023/01/20 11:23:38;;;;;;;6.90;3.88;;;4.20;99.90;;;;;;5050135;28;20224;-74
2023/01/20 11:26:15;;;;;;;3.17;2.88;;;4.20;99.90;;;;;;5032739;28;20192;-73
2023/01/20 11:28:50;;;;;;;4.00;2.80;;;4.20;99.90;;;;;;5062351;28;20238;-74
2023/01/20 11:31:21;;;;;;;4.57;3.38;;;4.20;99.90;;;;;;5034157;28;20196;-72
2023/01/20 11:33:58;;;;;;;7.25;4.60;;;4.20;99.90;;;;;;5037012;28;20224;-73
2023/01/20 11:36:27;;;;;;;7.07;4.47;;;4.20;99.90;;;;;;5049483;28;20224;-73
2023/01/20 11:38:57;;;;;;;8.80;5.30;;;4.20;99.90;;;;;;5027352;28;20700;-74
2023/01/20 11:41:27;;;;;;;11.55;5.45;;;4.20;99.90;;;;;;5021612;28;20197;-68
2023/01/20 11:43:57;;;;;;;6.13;4.75;;;4.20;99.90;;;;;;5048307;28;20255;-69
2023/01/20 11:46:29;;;;;;;5.85;4.40;;;4.20;99.90;;;;;;5030636;28;20197;-70
2023/01/20 11:49:15;;;;;;;7.38;4.25;;;4.10;99.90;;;;;;5030063;28;20250;-70
2023/01/20 11:51:49;;;;;;;4.50;3.90;;;4.10;99.90;;;;;;5027474;28;20200;-69
2023/01/20 11:54:20;;;;;;;6.05;5.18;;;4.10;99.90;;;;;;5044509;28;20408;-69
2023/01/20 11:56:53;;;;;;;8.02;5.13;;;4.10;99.90;;;;;;5027848;28;20228;-69
2023/01/20 11:59:26;;;;;;;5.93;4.72;;;4.10;99.90;;;;;;5067494;28;20199;-70
2023/01/20 12:02:00;;;;;;;5.35;4.82;;;4.10;99.90;;;;;;5040827;28;20212;-70
2023/01/20 12:04:58;;;;;;;4.65;4.20;;;4.10;99.90;;;;;;5058806;28;20228;-69
2023/01/20 12:07:30;;;;;;;7.50;4.53;;;4.10;99.90;;;;;;5048416;28;20228;-70
2023/01/20 12:10:04;;;;;;;6.25;4.70;;;4.10;99.90;;;;;;5056308;28;21107;-69
2023/01/20 12:12:39;;;;;;;4.60;3.75;;;4.10;99.90;;;;;;5030730;28;20217;-70
2023/01/20 12:15:15;;;;;;;5.63;4.15;;;4.10;99.90;;;;;;5026538;28;20675;-70
2023/01/20 12:17:54;;;;;;;6.72;4.35;;;4.10;99.90;;;;;;5030218;28;20196;-70
2023/01/20 12:20:28;;;;;;;4.80;2.90;;;4.10;99.90;;;;;;5058479;28;20320;-68
2023/01/20 12:23:13;;;;;;;4.57;3.63;;;4.10;99.90;;;;;;5029203;28;20226;-70
2023/01/20 12:25:49;;;;;;;4.90;3.60;;;4.10;99.90;;;;;;5033076;28;20205;-70
2023/01/20 12:28:22;;;;;;;5.90;3.78;;;4.10;99.90;;;;;;5038923;28;20216;-70
2023/01/20 12:30:58;;;;;;;5.43;3.80;;;4.10;99.90;;;;;;5026995;28;20196;-69
2023/01/20 12:33:30;;;;;;;5.18;3.53;;;4.10;99.90;;;;;;5038026;28;20712;-69
2023/01/20 12:36:35;;;;;;;4.78;3.65;;;4.10;99.90;;;;;;5055823;28;20689;-70
2023/01/20 12:39:28;;;;;;;4.28;2.97;;;4.10;99.90;;;;;;5051487;28;20247;-70
2023/01/20 12:42:25;;;;;;;6.13;3.83;;;4.10;99.90;;;;;;5037823;28;20192;-69
2023/01/20 12:44:58;;;;;;;4.25;2.90;;;4.10;99.90;;;;;;5033772;28;20209;-69
2023/01/20 12:47:42;;;;;;;4.25;3.25;;;4.10;99.90;;;;;;5052700;28;20648;-69
2023/01/20 12:50:23;;;;;;;6.72;3.42;;;4.10;99.90;;;;;;5052625;28;20196;-70
2023/01/20 12:53:13;;;;;;;4.70;3.67;;;4.10;99.90;;;;;;5036700;28;20208;-69
2023/01/20 12:55:54;;;;;;;5.15;3.47;;;4.10;99.90;;;;;;5035927;28;20203;-71
2023/01/20 12:58:38;;;;;;;4.13;3.40;;;4.10;99.90;;;;;;5051076;28;20219;-70
2023/01/20 13:01:35;;;;;;;4.63;3.58;;;4.10;99.90;;;;;;5027543;28;20311;-71
2023/01/20 13:04:45;;;;;;;5.30;4.47;;;4.10;99.90;;;;;;5038223;28;20223;-70
2023/01/20 13:07:37;;;;;;;6.10;4.75;;;4.10;99.90;;;;;;5037769;28;20895;-70
2023/01/20 13:10:39;;;;;;;4.03;3.40;;;4.10;99.90;;;;;;5027272;28;20283;-70
2023/01/20 13:13:17;;;;;;;7.30;4.22;;;4.10;99.90;;;;;;5022526;28;20292;-70
2023/01/20 13:15:53;;;;;;;4.40;3.30;;;4.10;99.90;;;;;;5066435;28;20296;-70
2023/01/20 13:18:28;;;;;;;3.58;2.83;;;4.00;99.90;;;;;;5042023;28;20262;-70
2023/01/20 13:20:56;;;;;;;6.40;3.80;;;4.00;99.90;;;;;;5043540;28;20208;-70
2023/01/20 13:23:28;;;;;;;6.93;5.03;;;4.10;99.90;;;;;;5063652;28;20219;-70
2023/01/20 13:25:58;;;;;;;6.10;4.43;;;4.10;99.90;;;;;;5031866;28;20243;-70
2023/01/20 13:28:28;;;;;;;5.70;3.80;;;4.10;99.90;;;;;;5040241;28;20220;-70
2023/01/20 13:30:58;;;;;;;6.28;4.32;;;4.10;99.90;;;;;;5023332;28;20706;-68
2023/01/20 13:33:33;;;;;;;5.32;4.55;;;4.20;99.90;;;;;;5064089;28;20220;-70